Time;durP1;ratioP1;P1;durP2;ratioP2;P2;SDS_P1;SDS_P2;PMS_P1;PMS_P2;Temp;Humidity;BMP_temperature;BMP_pressure;BME280_temperature;BME280_humidity;BME280_pressure;Samples;Min_cycle;Max_cycle;Signal;HPM_P1;HPM_P2
2022/08/17 00:01:12;;;;;;;8.07;6.37;;;18.70;99.90;;;;;;5011850;28;20448;-82
2022/08/17 00:03:40;;;;;;;7.73;5.23;;;18.70;99.90;;;;;;5016141;28;20471;-82
2022/08/17 00:06:11;;;;;;;5.80;5.20;;;18.60;99.90;;;;;;5016090;28;20441;-81
2022/08/17 00:08:44;;;;;;;5.00;4.60;;;18.60;99.90;;;;;;5031576;28;20466;-83
2022/08/17 00:11:17;;;;;;;9.27;5.20;;;18.60;99.90;;;;;;5019709;28;20445;-83
2022/08/17 00:13:46;;;;;;;5.43;4.93;;;18.60;99.90;;;;;;5015163;28;20425;-82
2022/08/17 00:16:21;;;;;;;5.77;5.10;;;18.50;99.90;;;;;;5016582;28;20471;-82
2022/08/17 00:18:47;;;;;;;6.07;5.57;;;18.30;99.90;;;;;;5015105;28;20913;-83
2022/08/17 00:21:14;;;;;;;4.60;4.07;;;18.30;99.90;;;;;;5016867;28;20467;-82
2022/08/17 00:23:41;;;;;;;6.60;5.37;;;18.20;99.90;;;;;;5017396;28;20572;-81
2022/08/17 00:26:07;;;;;;;7.00;5.77;;;18.20;99.90;;;;;;5020056;28;21259;-82
2022/08/17 00:28:33;;;;;;;6.33;5.70;;;18.20;99.90;;;;;;5017743;28;20448;-81
2022/08/17 00:30:59;;;;;;;5.60;4.60;;;18.20;99.90;;;;;;5015863;28;20448;-82
2022/08/17 00:33:27;;;;;;;5.80;5.30;;;18.20;99.90;;;;;;5015662;28;20979;-82
2022/08/17 00:35:54;;;;;;;6.17;5.07;;;18.20;99.90;;;;;;5016206;28;20436;-83
2022/08/17 00:38:21;;;;;;;5.40;4.90;;;18.20;99.90;;;;;;5019137;28;20878;-82
2022/08/17 00:40:55;;;;;;;6.57;5.97;;;18.20;99.90;;;;;;5016963;28;20929;-82
2022/08/17 00:43:48;;;;;;;7.37;5.77;;;18.20;99.90;;;;;;5013663;28;20476;-82
2022/08/17 00:46:18;;;;;;;8.10;5.43;;;18.20;99.90;;;;;;5014249;28;20448;-81
2022/08/17 00:48:45;;;;;;;5.23;4.73;;;18.30;99.90;;;;;;5012709;28;20437;-82
2022/08/17 00:51:47;;;;;;;6.13;5.63;;;18.20;99.90;;;;;;5015463;28;20441;-83
2022/08/17 00:54:23;;;;;;;8.40;5.70;;;18.20;99.90;;;;;;5015767;28;20449;-82
2022/08/17 00:57:13;;;;;;;6.47;5.83;;;18.10;99.90;;;;;;5019647;28;20433;-82
2022/08/17 00:59:47;;;;;;;7.60;4.63;;;18.10;99.90;;;;;;5014589;28;20465;-82
2022/08/17 01:02:14;;;;;;;5.83;5.30;;;18.10;99.90;;;;;;5015731;28;20432;-82
2022/08/17 01:04:43;;;;;;;6.20;5.33;;;18.00;99.90;;;;;;5015194;28;20460;-82
2022/08/17 01:07:11;;;;;;;7.33;4.80;;;18.00;99.90;;;;;;5014176;28;20428;-82
2022/08/17 01:09:36;;;;;;;5.30;4.80;;;18.10;99.90;;;;;;5013730;28;20804;-82
2022/08/17 01:12:05;;;;;;;6.33;5.73;;;17.90;99.90;;;;;;5018383;28;20451;-82
2022/08/17 01:14:31;;;;;;;7.40;5.70;;;18.00;99.90;;;;;;5020271;28;20455;-82
2022/08/17 01:16:56;;;;;;;10.13;6.37;;;17.90;99.90;;;;;;5017300;28;20823;-82
2022/08/17 01:19:29;;;;;;;8.90;5.70;;;17.90;99.90;;;;;;5013320;28;20283;-82
2022/08/17 01:22:10;;;;;;;10.23;6.47;;;17.90;99.90;;;;;;5015475;28;20198;-81
2022/08/17 01:24:42;;;;;;;9.83;6.53;;;17.90;99.90;;;;;;5014968;28;20465;-83
2022/08/17 01:27:08;;;;;;;7.20;6.50;;;17.90;99.90;;;;;;5016445;28;20488;-82
2022/08/17 01:29:37;;;;;;;10.20;6.37;;;17.90;99.90;;;;;;5019493;28;20429;-82
2022/08/17 01:32:05;;;;;;;6.60;6.00;;;17.90;99.90;;;;;;5020694;28;20908;-83
2022/08/17 01:34:31;;;;;;;7.00;6.30;;;18.00;99.90;;;;;;5013746;28;20436;-82
2022/08/17 01:36:57;;;;;;;9.80;6.60;;;18.10;99.90;;;;;;5015696;28;20512;-82
2022/08/17 01:39:25;;;;;;;9.03;7.10;;;18.00;99.90;;;;;;5016153;28;20478;-82
2022/08/17 01:41:54;;;;;;;10.70;6.43;;;18.00;99.90;;;;;;5015519;28;20433;-81
2022/08/17 01:44:22;;;;;;;9.07;8.17;;;17.90;99.90;;;;;;5021411;28;20460;-83
2022/08/17 01:46:48;;;;;;;8.97;7.03;;;17.90;99.90;;;;;;5020021;28;20416;-83
2022/08/17 01:49:13;;;;;;;8.83;7.77;;;17.90;99.90;;;;;;5023082;28;20429;-83
2022/08/17 01:51:39;;;;;;;7.83;7.03;;;17.90;99.90;;;;;;5012896;28;20425;-83
2022/08/17 01:54:09;;;;;;;9.80;8.73;;;17.80;99.90;;;;;;5015168;28;20216;-83
2022/08/17 01:56:39;;;;;;;9.63;8.20;;;17.80;99.90;;;;;;5017391;28;20182;-83
2022/08/17 01:59:05;;;;;;;8.87;6.67;;;17.80;99.90;;;;;;5012528;28;20437;-83
2022/08/17 02:01:33;;;;;;;10.17;7.43;;;17.80;99.90;;;;;;5019983;28;20964;-83
2022/08/17 02:03:59;;;;;;;8.43;6.77;;;17.70;99.90;;;;;;5016295;28;20461;-83
2022/08/17 02:06:26;;;;;;;7.90;5.97;;;17.70;99.90;;;;;;5018226;28;20494;-83
2022/08/17 02:08:52;;;;;;;6.37;5.77;;;17.70;99.90;;;;;;5017521;28;20424;-83
2022/08/17 02:11:19;;;;;;;6.97;5.83;;;17.50;99.90;;;;;;5019976;28;20445;-83
2022/08/17 02:13:47;;;;;;;11.60;5.70;;;17.30;99.90;;;;;;5019933;28;20429;-83
2022/08/17 02:16:14;;;;;;;7.00;6.10;;;17.30;99.90;;;;;;5019660;28;20480;-83
2022/08/17 02:18:39;;;;;;;7.60;6.27;;;17.20;99.90;;;;;;5020223;28;20508;-84
2022/08/17 02:21:05;;;;;;;9.33;6.33;;;17.20;99.90;;;;;;5014803;28;20515;-83
2022/08/17 02:23:34;;;;;;;9.13;7.20;;;17.20;99.90;;;;;;5017721;28;20198;-83
2022/08/17 02:26:00;;;;;;;8.00;7.20;;;17.20;99.90;;;;;;5019163;28;20448;-84
2022/08/17 02:28:27;;;;;;;9.47;7.40;;;17.20;99.90;;;;;;5019132;28;20429;-84
2022/08/17 02:30:54;;;;;;;7.50;6.40;;;17.20;99.90;;;;;;5017915;28;20536;-82
2022/08/17 02:33:20;;;;;;;8.73;6.70;;;17.20;99.90;;;;;;5021429;28;21224;-83
2022/08/17 02:35:46;;;;;;;11.63;8.40;;;17.20;99.90;;;;;;5016305;28;20551;-83
2022/08/17 02:38:11;;;;;;;9.97;6.67;;;17.20;99.90;;;;;;5017513;28;20465;-83
2022/08/17 02:40:39;;;;;;;8.30;7.33;;;17.20;99.90;;;;;;5017174;28;20248;-83
2022/08/17 02:43:06;;;;;;;8.50;7.70;;;17.30;99.90;;;;;;5018987;28;20572;-83
2022/08/17 02:45:32;;;;;;;10.20;8.10;;;17.30;99.90;;;;;;5020263;28;20422;-83
2022/08/17 02:47:57;;;;;;;9.17;7.80;;;17.40;99.90;;;;;;5019641;28;20486;-83
2022/08/17 02:50:24;;;;;;;15.00;8.60;;;17.40;99.90;;;;;;5018949;28;21220;-83
2022/08/17 02:52:50;;;;;;;8.30;7.40;;;17.40;99.90;;;;;;5014509;28;20206;-83
2022/08/17 02:55:18;;;;;;;12.30;9.13;;;17.30;99.90;;;;;;5017772;28;20441;-83
2022/08/17 02:57:44;;;;;;;10.83;8.43;;;17.30;99.90;;;;;;5018569;28;20524;-82
2022/08/17 03:00:14;;;;;;;14.73;9.90;;;17.20;99.90;;;;;;5015792;28;20457;-84
2022/08/17 03:02:42;;;;;;;11.27;8.37;;;17.10;99.90;;;;;;5022339;28;20441;-83
2022/08/17 03:05:10;;;;;;;15.97;9.43;;;17.10;99.90;;;;;;5018802;28;20470;-83
2022/08/17 03:07:37;;;;;;;11.43;8.93;;;17.10;99.90;;;;;;5013057;28;20478;-83
2022/08/17 03:10:04;;;;;;;11.23;8.60;;;17.10;99.90;;;;;;5017836;28;20437;-83
2022/08/17 03:12:36;;;;;;;13.93;9.70;;;17.10;99.90;;;;;;5048066;28;20420;-83
2022/08/17 03:15:08;;;;;;;11.47;8.97;;;17.10;99.90;;;;;;5036703;28;20381;-83
2022/08/17 03:17:34;;;;;;;10.83;9.33;;;17.10;99.90;;;;;;5029392;28;20425;-83
2022/08/17 03:19:59;;;;;;;10.70;7.40;;;17.10;99.90;;;;;;5018507;28;20461;-83
2022/08/17 03:22:26;;;;;;;10.70;7.63;;;17.20;99.90;;;;;;5018081;28;20212;-83
2022/08/17 03:24:53;;;;;;;8.93;7.93;;;17.20;99.90;;;;;;5018428;28;20178;-83
2022/08/17 03:27:19;;;;;;;9.57;7.70;;;17.10;99.90;;;;;;5032864;28;20432;-83
2022/08/17 03:29:44;;;;;;;10.73;8.20;;;17.10;99.90;;;;;;5016128;28;20509;-83
2022/08/17 03:32:15;;;;;;;8.70;7.80;;;17.10;99.90;;;;;;5016408;28;20174;-83
2022/08/17 03:34:41;;;;;;;9.60;7.60;;;17.20;99.90;;;;;;5021414;28;20192;-83
2022/08/17 03:37:07;;;;;;;7.03;6.33;;;17.20;99.90;;;;;;5013353;28;20445;-83
2022/08/17 03:39:33;;;;;;;9.30;7.10;;;17.20;99.90;;;;;;5014863;28;21389;-83
2022/08/17 03:42:20;;;;;;;9.40;8.20;;;17.20;99.90;;;;;;5014372;28;20433;-82
2022/08/17 03:44:53;;;;;;;8.20;7.20;;;17.20;99.90;;;;;;5016313;28;20202;-83
2022/08/17 03:58:18;;;;;;;13.40;9.53;;;17.10;99.90;;;;;;5016900;28;20467;-82
2022/08/17 04:00:45;;;;;;;8.77;7.90;;;17.20;99.90;;;;;;5011565;28;21031;-83
2022/08/17 04:03:11;;;;;;;11.57;10.00;;;17.20;99.90;;;;;;5017080;28;20932;-82
2022/08/17 04:05:37;;;;;;;16.17;12.68;;;16.90;99.90;;;;;;5017378;28;20409;-81
2022/08/17 04:08:04;;;;;;;12.77;11.37;;;16.90;99.90;;;;;;5016232;28;20888;-82
2022/08/17 04:10:29;;;;;;;12.87;10.80;;;16.80;99.90;;;;;;5014154;28;20552;-82
2022/08/17 04:12:55;;;;;;;12.57;10.50;;;16.70;99.90;;;;;;5016771;28;20470;-82
2022/08/17 04:15:21;;;;;;;19.13;11.70;;;16.60;99.90;;;;;;5012928;28;20193;-82
2022/08/17 04:17:47;;;;;;;12.53;10.83;;;16.60;99.90;;;;;;5016664;28;20191;-82
2022/08/17 04:20:15;;;;;;;13.67;10.43;;;16.50;99.90;;;;;;5020916;28;21003;-82
2022/08/17 04:23:03;;;;;;;13.73;9.73;;;16.40;99.90;;;;;;5016466;28;20194;-82
2022/08/17 04:25:31;;;;;;;16.87;10.33;;;16.40;99.90;;;;;;5011692;28;20425;-82
2022/08/17 04:27:58;;;;;;;11.23;9.30;;;16.30;99.90;;;;;;5014649;28;20431;-83
2022/08/17 04:30:24;;;;;;;12.00;10.20;;;16.40;99.90;;;;;;5019288;28;20460;-82
2022/08/17 04:33:04;;;;;;;10.83;9.73;;;16.50;99.90;;;;;;5017425;28;20437;-82
2022/08/17 04:35:32;;;;;;;14.60;10.60;;;16.40;99.90;;;;;;5018718;28;20907;-82
2022/08/17 04:37:57;;;;;;;18.20;11.20;;;16.30;99.90;;;;;;5015288;28;20668;-82
2022/08/17 04:43:15;;;;;;;10.83;9.10;;;16.40;99.90;;;;;;5013885;28;20260;-82
2022/08/17 04:45:44;;;;;;;15.23;10.80;;;16.40;99.90;;;;;;5017175;28;20440;-82
2022/08/17 04:48:10;;;;;;;14.43;8.60;;;16.50;99.90;;;;;;5015781;28;20488;-82
2022/08/17 04:50:41;;;;;;;17.93;10.10;;;16.60;99.90;;;;;;5019344;28;20480;-82
2022/08/17 04:53:06;;;;;;;18.10;11.07;;;16.90;99.90;;;;;;5022111;28;20170;-82
2022/08/17 04:55:32;;;;;;;9.53;8.43;;;17.30;99.90;;;;;;5026428;28;20410;-82
2022/08/17 04:57:57;;;;;;;11.63;8.90;;;17.50;99.90;;;;;;5015748;28;20191;-82
2022/08/17 05:00:24;;;;;;;10.60;8.33;;;18.20;99.90;;;;;;5012864;28;20222;-82
2022/08/17 05:02:52;;;;;;;16.00;8.37;;;18.20;99.90;;;;;;5016690;28;20198;-82
2022/08/17 05:05:23;;;;;;;10.40;8.00;;;19.00;99.90;;;;;;5017764;28;20503;-82
2022/08/17 05:07:53;;;;;;;10.93;7.37;;;20.20;99.90;;;;;;5018577;28;20429;-82
2022/08/17 05:10:23;;;;;;;17.40;6.60;;;21.90;99.90;;;;;;5015552;28;20433;-82
2022/08/17 05:13:05;;;;;;;8.63;6.13;;;23.40;99.90;;;;;;5013749;28;20851;-82
2022/08/17 05:15:32;;;;;;;7.40;5.73;;;25.10;99.90;;;;;;5016337;28;20503;-82
2022/08/17 05:17:57;;;;;;;7.93;5.70;;;26.30;99.90;;;;;;5012629;28;20420;-83
2022/08/17 05:20:25;;;;;;;9.23;6.40;;;27.40;99.90;;;;;;5014473;28;20461;-80
2022/08/17 05:22:54;;;;;;;8.07;7.27;;;28.60;99.90;;;;;;5019331;28;20678;-80
2022/08/17 05:25:22;;;;;;;9.77;7.90;;;28.70;99.90;;;;;;5011799;28;20407;-80
2022/08/17 05:27:48;;;;;;;8.07;7.07;;;28.50;99.40;;;;;;5012194;28;20451;-80
2022/08/17 05:30:14;;;;;;;9.03;7.70;;;28.90;99.80;;;;;;5013483;28;20478;-82
2022/08/17 05:32:57;;;;;;;8.07;7.27;;;29.70;98.30;;;;;;5013974;28;20170;-82
2022/08/17 05:35:23;;;;;;;7.43;6.70;;;30.90;94.70;;;;;;5017481;28;20417;-82
2022/08/17 05:37:49;;;;;;;7.80;7.00;;;31.40;91.20;;;;;;5021346;28;20463;-82
2022/08/17 05:40:15;;;;;;;8.87;7.33;;;30.60;90.40;;;;;;5016049;28;20428;-82
2022/08/17 05:42:41;;;;;;;10.43;6.40;;;29.90;90.60;;;;;;5015256;28;20727;-81
2022/08/17 05:45:08;;;;;;;8.17;7.43;;;29.40;91.80;;;;;;5020605;28;20440;-82
2022/08/17 05:47:37;;;;;;;9.63;8.60;;;29.70;93.30;;;;;;5019741;28;20252;-82
2022/08/17 05:50:04;;;;;;;8.93;7.90;;;29.70;92.40;;;;;;5020263;28;20466;-82
2022/08/17 05:52:48;;;;;;;9.03;6.63;;;29.50;92.30;;;;;;5022983;28;20429;-82
2022/08/17 05:55:14;;;;;;;15.43;8.73;;;29.10;91.70;;;;;;5018294;28;20432;-82
2022/08/17 05:57:40;;;;;;;9.43;8.43;;;28.50;92.20;;;;;;5016068;28;20530;-82
2022/08/17 06:00:18;;;;;;;10.33;8.23;;;27.60;94.60;;;;;;5017685;28;20199;-80
2022/08/17 06:02:43;;;;;;;11.33;8.70;;;26.70;97.60;;;;;;5016928;28;20414;-80
2022/08/17 06:05:27;;;;;;;10.37;8.37;;;27.50;98.90;;;;;;5020633;28;20419;-81
2022/08/17 06:08:07;;;;;;;11.43;8.47;;;29.40;96.60;;;;;;5018979;28;20302;-81
2022/08/17 06:10:45;;;;;;;12.83;7.80;;;32.40;92.40;;;;;;5016141;28;20448;-81
2022/08/17 06:13:17;;;;;;;10.33;8.37;;;35.30;81.70;;;;;;5018000;28;20414;-81
2022/08/17 06:16:01;;;;;;;10.60;8.77;;;37.00;71.20;;;;;;5017574;28;20417;-83
2022/08/17 06:18:30;;;;;;;9.20;8.10;;;37.40;62.00;;;;;;5018987;28;20521;-83
2022/08/17 06:21:00;;;;;;;10.70;8.70;;;37.20;59.90;;;;;;5021995;28;20455;-82
2022/08/17 06:23:42;;;;;;;10.33;9.43;;;37.00;58.90;;;;;;5018954;28;20992;-83
2022/08/17 06:26:13;;;;;;;9.93;9.23;;;36.80;57.10;;;;;;5016219;28;21094;-83
2022/08/17 06:28:48;;;;;;;11.33;10.20;;;35.40;57.60;;;;;;5016055;28;20436;-83
2022/08/17 06:31:27;;;;;;;9.57;8.77;;;35.30;56.90;;;;;;5016964;28;20448;-82
2022/08/17 06:33:55;;;;;;;9.50;8.60;;;36.10;56.80;;;;;;5018799;28;20532;-84
2022/08/17 06:36:36;;;;;;;12.17;8.43;;;37.10;54.90;;;;;;5020582;28;20448;-80
2022/08/17 06:39:26;;;;;;;9.30;7.93;;;37.10;49.60;;;;;;5022455;28;20431;-83
2022/08/17 06:42:24;;;;;;;9.80;9.10;;;38.10;50.60;;;;;;5013291;28;20442;-82
2022/08/17 06:44:53;;;;;;;11.67;9.63;;;37.00;50.00;;;;;;5020307;28;20463;-82
2022/08/17 06:47:43;;;;;;;11.63;10.57;;;35.60;52.00;;;;;;5019238;28;20417;-80
2022/08/17 06:50:20;;;;;;;14.93;11.60;;;33.50;57.40;;;;;;5025523;28;20478;-82
2022/08/17 06:52:53;;;;;;;14.90;10.37;;;32.20;62.50;;;;;;5020312;28;20441;-83
2022/08/17 06:55:33;;;;;;;11.30;10.07;;;30.90;68.50;;;;;;5021974;28;20403;-83
2022/08/17 06:58:05;;;;;;;13.97;10.03;;;30.40;73.50;;;;;;5018537;28;20390;-82
2022/08/17 07:00:39;;;;;;;12.57;9.90;;;30.20;76.70;;;;;;5014486;28;21009;-82
2022/08/17 07:03:25;;;;;;;15.20;10.30;;;30.10;78.20;;;;;;5020644;28;20444;-80
2022/08/17 07:05:55;;;;;;;11.60;9.40;;;30.30;79.20;;;;;;5018468;28;20949;-83
2022/08/17 07:08:40;;;;;;;10.20;9.10;;;29.70;82.40;;;;;;5022414;28;20436;-83
2022/08/17 07:11:13;;;;;;;11.80;10.63;;;29.30;85.30;;;;;;5016839;28;20468;-82
2022/08/17 07:14:06;;;;;;;14.60;9.27;;;31.40;81.80;;;;;;5017853;28;21433;-83
2022/08/17 07:16:40;;;;;;;8.27;7.57;;;34.40;74.20;;;;;;5017726;28;20416;-83
2022/08/17 07:19:06;;;;;;;9.53;8.40;;;38.60;54.00;;;;;;5017712;28;20441;-83
2022/08/17 07:21:44;;;;;;;11.07;9.30;;;38.60;54.50;;;;;;5018642;28;20549;-83
2022/08/17 07:24:18;;;;;;;9.70;8.90;;;38.60;50.40;;;;;;5018813;28;21032;-83
2022/08/17 07:26:45;;;;;;;9.83;8.83;;;37.80;49.60;;;;;;5014820;28;20893;-83
2022/08/17 07:29:16;;;;;;;10.10;9.20;;;34.90;52.50;;;;;;5014586;28;20406;-81
2022/08/17 07:31:41;;;;;;;10.93;10.00;;;34.70;53.40;;;;;;5023016;28;20382;-82
2022/08/17 07:34:13;;;;;;;10.63;9.83;;;33.10;55.30;;;;;;5016710;28;20443;-81
2022/08/17 07:36:42;;;;;;;12.53;10.43;;;32.20;58.50;;;;;;5018747;28;20176;-81
2022/08/17 07:39:09;;;;;;;9.60;8.70;;;30.20;64.60;;;;;;5014739;28;20492;-81
2022/08/17 07:41:38;;;;;;;13.00;9.63;;;30.20;65.70;;;;;;5011946;28;20467;-81
2022/08/17 07:44:11;;;;;;;9.93;8.90;;;30.00;67.50;;;;;;5016500;28;21005;-82
2022/08/17 07:49:36;;;;;;;9.87;8.20;;;29.70;70.00;;;;;;5018705;28;21052;-82
2022/08/17 07:52:24;;;;;;;10.93;8.40;;;29.40;72.10;;;;;;5019538;28;20413;-82
2022/08/17 07:54:50;;;;;;;10.73;9.10;;;29.10;72.60;;;;;;5017381;28;20424;-82
2022/08/17 07:57:18;;;;;;;11.10;7.73;;;29.80;73.10;;;;;;5014566;28;20417;-82
2022/08/17 07:59:59;;;;;;;8.33;7.63;;;30.70;70.90;;;;;;5009900;28;20202;-81
2022/08/17 08:02:40;;;;;;;8.97;7.20;;;31.40;66.50;;;;;;5016567;28;20429;-81
2022/08/17 08:05:21;;;;;;;13.13;8.80;;;31.30;66.50;;;;;;5015945;28;20416;-81
2022/08/17 08:07:48;;;;;;;8.77;8.00;;;;;;;;;;5013916;28;20465;-81
2022/08/17 08:10:29;;;;;;;13.43;8.00;;;29.60;70.00;;;;;;5022564;28;20442;-81
2022/08/17 08:13:07;;;;;;;9.27;7.90;;;28.60;73.90;;;;;;5013407;28;21099;-82
2022/08/17 08:15:47;;;;;;;9.10;8.17;;;28.20;77.80;;;;;;5002834;28;20417;-81
2022/08/17 08:18:35;;;;;;;10.67;7.33;;;28.20;79.30;;;;;;5001529;28;20492;-82
2022/08/17 08:21:08;;;;;;;8.40;7.60;;;29.00;76.60;;;;;;5015682;28;20461;-81
2022/08/17 08:23:39;;;;;;;8.37;7.57;;;29.60;77.60;;;;;;5021797;28;21082;-82
2022/08/17 08:26:32;;;;;;;8.93;7.40;;;30.00;74.50;;;;;;5026868;28;20415;-82
2022/08/17 08:29:19;;;;;;;11.07;7.23;;;29.90;74.00;;;;;;5011957;28;20478;-81
2022/08/17 08:31:55;;;;;;;9.60;7.47;;;30.30;73.00;;;;;;5012162;28;20436;-82
2022/08/17 08:34:37;;;;;;;8.20;7.60;;;30.30;73.00;;;;;;5017032;28;20415;-83
2022/08/17 08:37:44;;;;;;;9.27;7.63;;;29.60;72.50;;;;;;5015372;28;20462;-83
2022/08/17 08:40:22;;;;;;;10.87;7.70;;;29.40;75.90;;;;;;4975355;28;20480;-83
2022/08/17 08:43:14;;;;;;;11.93;8.23;;;29.30;75.50;;;;;;5010032;28;21077;-83
2022/08/17 08:46:14;;;;;;;7.97;7.17;;;29.20;76.10;;;;;;5013357;28;20422;-82
2022/08/17 08:49:15;;;;;;;11.60;8.63;;;29.10;76.80;;;;;;5018693;28;20424;-82
2022/08/17 08:51:56;;;;;;;10.63;7.37;;;28.40;78.50;;;;;;5001034;28;20423;-81
2022/08/17 08:54:58;;;;;;;16.33;7.70;;;28.20;81.20;;;;;;5029906;28;20408;-82
2022/08/17 08:57:34;;;;;;;11.90;8.37;;;28.20;81.40;;;;;;5016249;28;20427;-82
2022/08/17 09:00:13;;;;;;;8.53;7.73;;;28.20;80.90;;;;;;5010134;28;21147;-82
2022/08/17 09:03:07;;;;;;;9.70;8.10;;;28.40;80.90;;;;;;5012510;28;20397;-82
2022/08/17 09:05:56;;;;;;;8.13;7.27;;;28.50;80.00;;;;;;5014580;28;20907;-81
2022/08/17 09:08:36;;;;;;;8.87;8.03;;;28.30;81.10;;;;;;5012985;28;20539;-81
2022/08/17 09:11:12;;;;;;;12.17;8.17;;;27.50;84.50;;;;;;5018742;28;20433;-81
2022/08/17 09:13:55;;;;;;;8.53;7.67;;;27.40;86.70;;;;;;5030499;28;20895;-82
2022/08/17 09:16:31;;;;;;;7.70;7.10;;;27.10;88.90;;;;;;5015295;28;20533;-82
2022/08/17 09:19:07;;;;;;;9.87;8.90;;;26.90;90.10;;;;;;5015302;28;20427;-82
2022/08/17 09:21:53;;;;;;;12.60;7.77;;;26.60;90.70;;;;;;5017456;28;20486;-82
2022/08/17 09:24:34;;;;;;;8.73;8.00;;;26.50;92.10;;;;;;5018985;28;20509;-82
2022/08/17 09:27:12;;;;;;;8.37;7.70;;;26.50;92.50;;;;;;5021266;28;20419;-82
2022/08/17 09:29:47;;;;;;;12.37;8.60;;;27.30;92.20;;;;;;5020256;28;20474;-82
2022/08/17 09:32:27;;;;;;;9.13;8.30;;;27.30;92.50;;;;;;5017218;28;20913;-82
2022/08/17 09:34:59;;;;;;;9.77;8.40;;;27.80;90.80;;;;;;5017941;28;20426;-82
2022/08/17 09:37:42;;;;;;;8.67;7.87;;;27.70;90.80;;;;;;5020873;28;20443;-82
2022/08/17 09:40:24;;;;;;;8.70;7.90;;;27.90;90.70;;;;;;5019876;28;20432;-83
2022/08/17 09:43:17;;;;;;;7.90;7.20;;;28.10;90.20;;;;;;5015933;28;20523;-82
2022/08/17 09:45:57;;;;;;;11.10;6.27;;;28.00;89.00;;;;;;5015491;28;20449;-82
2022/08/17 09:48:37;;;;;;;7.87;7.10;;;28.10;88.70;;;;;;5017402;28;20440;-83
2022/08/17 09:51:18;;;;;;;8.93;7.30;;;28.20;88.00;;;;;;5017099;28;20480;-82
2022/08/17 09:53:44;;;;;;;6.43;5.83;;;27.80;88.70;;;;;;5018979;28;20936;-82
2022/08/17 09:56:29;;;;;;;7.60;6.30;;;27.30;88.70;;;;;;5018341;28;20458;-82
2022/08/17 09:59:22;;;;;;;6.47;5.87;;;27.20;89.50;;;;;;5017314;28;20941;-82
2022/08/17 10:02:14;;;;;;;9.60;5.13;;;26.60;89.50;;;;;;5019942;28;20851;-83
2022/08/17 10:05:01;;;;;;;6.93;6.17;;;26.30;90.70;;;;;;5016505;28;20460;-82
2022/08/17 10:07:56;;;;;;;6.67;5.60;;;25.70;91.50;;;;;;5016645;28;21204;-82
2022/08/17 10:10:31;;;;;;;10.10;5.90;;;25.30;92.50;;;;;;5019854;28;20456;-83
2022/08/17 10:13:25;;;;;;;7.13;5.53;;;25.30;93.10;;;;;;5024826;28;20909;-83
2022/08/17 10:16:29;;;;;;;7.70;6.40;;;25.10;93.30;;;;;;5005724;28;20431;-83
2022/08/17 10:19:12;;;;;;;6.90;5.57;;;24.80;94.30;;;;;;5006610;28;20449;-82
2022/08/17 10:27:39;;;;;;;6.80;6.17;;;23.90;99.90;;;;;;5017817;28;20393;-81
2022/08/17 10:30:08;;;;;;;9.17;5.83;;;23.40;99.90;;;;;;5017367;28;20480;-82
2022/08/17 10:32:39;;;;;;;14.40;6.10;;;23.30;99.90;;;;;;5017259;28;20904;-81
2022/08/17 10:35:19;;;;;;;6.83;6.20;;;23.20;99.90;;;;;;5018638;28;20477;-81
2022/08/17 10:38:07;;;;;;;6.73;5.90;;;23.20;99.90;;;;;;5016456;28;20437;-82
2022/08/17 10:41:11;;;;;;;6.00;5.40;;;23.30;99.90;;;;;;5015108;28;20468;-81
2022/08/17 10:43:57;;;;;;;6.13;5.53;;;23.40;99.90;;;;;;5018393;28;20509;-81
2022/08/17 10:47:04;;;;;;;5.50;4.60;;;23.30;99.90;;;;;;5020466;28;20426;-82
2022/08/17 10:49:32;;;;;;;6.90;5.53;;;23.10;99.90;;;;;;5017071;28;20476;-81
2022/08/17 10:52:24;;;;;;;7.37;5.77;;;22.90;99.90;;;;;;5017779;28;20463;-81
2022/08/17 10:54:50;;;;;;;7.33;5.57;;;22.70;99.90;;;;;;5015889;28;20528;-82
2022/08/17 10:57:36;;;;;;;9.57;7.17;;;22.40;99.90;;;;;;5018235;28;20913;-81
2022/08/17 11:00:30;;;;;;;8.47;6.97;;;22.20;99.90;;;;;;5018277;28;21078;-81
2022/08/17 11:02:57;;;;;;;9.00;7.13;;;22.00;99.90;;;;;;5001739;28;20434;-81
2022/08/17 11:05:39;;;;;;;9.33;7.67;;;21.90;99.90;;;;;;5017375;28;20512;-81
2022/08/17 11:08:42;;;;;;;7.70;6.30;;;21.80;99.90;;;;;;5017130;28;20426;-81
2022/08/17 11:11:37;;;;;;;6.97;6.30;;;21.70;99.90;;;;;;5017819;28;20979;-82
2022/08/17 11:14:42;;;;;;;7.93;6.93;;;21.60;99.90;;;;;;5017790;28;20405;-82
2022/08/17 11:17:29;;;;;;;6.70;5.70;;;21.60;99.90;;;;;;5018882;28;20809;-81
2022/08/17 11:20:07;;;;;;;11.80;6.50;;;21.70;99.90;;;;;;5021205;28;20563;-82
2022/08/17 11:22:48;;;;;;;9.90;6.30;;;22.20;99.90;;;;;;5014896;28;20428;-82
2022/08/17 11:25:19;;;;;;;8.43;7.37;;;22.50;99.90;;;;;;5019209;28;20409;-80
2022/08/17 11:27:52;;;;;;;9.00;7.27;;;22.80;99.90;;;;;;5015943;28;20488;-82
2022/08/17 11:30:46;;;;;;;9.03;7.13;;;23.10;99.90;;;;;;5017612;28;20417;-81
2022/08/17 11:33:30;;;;;;;8.27;7.40;;;23.50;99.90;;;;;;5020864;28;20409;-83
2022/08/17 11:36:16;;;;;;;9.37;7.10;;;23.60;99.90;;;;;;5002120;28;20424;-81
2022/08/17 11:38:58;;;;;;;8.40;7.53;;;23.50;99.90;;;;;;5015989;28;20508;-83
2022/08/17 11:41:40;;;;;;;7.50;6.90;;;23.40;99.90;;;;;;5012186;28;20425;-84
2022/08/17 11:44:36;;;;;;;9.03;8.00;;;23.40;99.90;;;;;;5017748;28;20543;-81
2022/08/17 11:53:38;;;;;;;8.00;6.47;;;23.60;99.90;;;;;;5012957;28;20941;-83
2022/08/17 11:56:08;;;;;;;9.70;7.63;;;23.80;99.90;;;;;;5015730;28;20437;-82
2022/08/17 11:58:41;;;;;;;8.87;7.37;;;24.00;99.90;;;;;;5016806;28;20432;-84
2022/08/17 12:01:23;;;;;;;10.33;7.40;;;24.10;99.90;;;;;;5017522;28;20435;-83
2022/08/17 12:04:17;;;;;;;10.50;7.53;;;24.20;99.90;;;;;;5017507;28;20547;-83
2022/08/17 12:06:55;;;;;;;9.30;6.83;;;24.30;99.90;;;;;;5005832;28;20479;-84
2022/08/17 12:09:25;;;;;;;10.67;7.03;;;24.20;99.90;;;;;;5014208;28;20519;-84
2022/08/17 12:12:01;;;;;;;8.20;6.97;;;24.20;99.90;;;;;;5015918;28;20477;-83
2022/08/17 12:14:29;;;;;;;7.97;6.10;;;24.30;99.90;;;;;;5015772;28;21021;-81
2022/08/17 12:17:08;;;;;;;8.97;6.97;;;24.40;99.90;;;;;;5018327;28;20436;-81
2022/08/17 12:19:36;;;;;;;7.30;6.60;;;25.20;99.90;;;;;;5017371;28;20454;-81
2022/08/17 12:22:25;;;;;;;9.53;8.27;;;25.20;99.90;;;;;;5016540;28;20496;-81
2022/08/17 12:25:09;;;;;;;9.70;7.10;;;25.60;99.90;;;;;;5014375;28;20504;-82
2022/08/17 12:27:35;;;;;;;8.27;7.30;;;26.10;99.90;;;;;;5017741;28;20480;-81
2022/08/17 12:30:08;;;;;;;10.57;7.00;;;26.60;99.90;;;;;;5019434;28;20974;-82
2022/08/17 12:32:35;;;;;;;8.60;7.43;;;27.00;99.90;;;;;;5017060;28;20426;-81
2022/08/17 12:35:03;;;;;;;9.87;6.80;;;27.20;99.90;;;;;;5015928;28;20943;-83
2022/08/17 12:37:31;;;;;;;8.43;6.23;;;27.10;99.90;;;;;;5017696;28;20494;-84
2022/08/17 12:40:07;;;;;;;6.83;6.20;;;26.90;99.90;;;;;;5013867;28;20478;-83
2022/08/17 12:42:36;;;;;;;7.93;6.90;;;26.90;99.90;;;;;;5011496;28;20430;-82
2022/08/17 12:45:23;;;;;;;6.97;6.30;;;26.90;99.90;;;;;;5016086;28;20552;-81
2022/08/17 12:47:59;;;;;;;16.70;6.27;;;27.20;99.90;;;;;;5016546;28;20453;-83
2022/08/17 12:50:24;;;;;;;7.60;7.00;;;27.10;99.90;;;;;;5014783;28;20519;-83
2022/08/17 12:52:50;;;;;;;10.00;7.70;;;26.80;99.90;;;;;;5019352;28;20838;-83
2022/08/17 12:55:24;;;;;;;10.43;7.17;;;26.60;99.90;;;;;;5014097;28;20263;-80
2022/08/17 12:57:53;;;;;;;9.30;7.70;;;26.40;99.90;;;;;;5013611;28;20183;-83
2022/08/17 13:00:31;;;;;;;12.00;8.10;;;26.40;99.90;;;;;;5014397;28;20465;-83
2022/08/17 13:03:12;;;;;;;7.83;6.87;;;26.00;99.90;;;;;;5014345;28;20423;-83
2022/08/17 13:05:59;;;;;;;8.80;7.90;;;25.90;99.90;;;;;;5015430;28;20931;-83
2022/08/17 13:08:30;;;;;;;8.37;6.80;;;25.90;99.90;;;;;;5011854;28;20434;-83
2022/08/17 13:10:58;;;;;;;14.97;6.77;;;25.90;99.90;;;;;;5014827;28;20450;-83
2022/08/17 13:13:37;;;;;;;8.20;6.27;;;25.90;99.90;;;;;;5014667;28;20821;-83
2022/08/17 13:16:08;;;;;;;10.43;7.40;;;26.20;99.90;;;;;;5014993;28;20451;-83
2022/08/17 13:18:39;;;;;;;8.23;7.53;;;26.30;99.90;;;;;;5013890;28;20457;-83
2022/08/17 13:21:21;;;;;;;11.40;6.50;;;26.50;99.90;;;;;;5014731;28;20498;-83
2022/08/17 13:24:17;;;;;;;6.80;6.30;;;26.80;99.90;;;;;;5017948;28;20818;-83
2022/08/17 13:26:59;;;;;;;7.53;6.53;;;26.60;99.90;;;;;;5012533;28;21202;-83
2022/08/17 13:29:37;;;;;;;6.50;5.90;;;26.90;99.90;;;;;;5013170;28;20964;-79
2022/08/17 13:32:03;;;;;;;6.73;6.07;;;27.40;99.90;;;;;;5013329;28;20419;-81
2022/08/17 13:34:34;;;;;;;7.50;6.53;;;27.80;99.90;;;;;;5016288;28;20424;-83
2022/08/17 13:37:25;;;;;;;7.07;6.30;;;28.00;99.90;;;;;;5013642;28;20170;-82
2022/08/17 13:39:53;;;;;;;7.00;5.73;;;28.50;99.90;;;;;;5014783;28;20455;-83
2022/08/17 13:42:32;;;;;;;8.20;7.27;;;28.60;99.90;;;;;;5012488;28;20432;-81
2022/08/17 13:44:59;;;;;;;10.30;7.10;;;28.70;99.90;;;;;;5013508;28;20448;-82
2022/08/17 13:47:25;;;;;;;10.80;6.87;;;29.20;99.90;;;;;;5015555;28;20415;-82
2022/08/17 13:49:51;;;;;;;6.77;6.13;;;29.60;99.90;;;;;;5016020;28;20432;-82